Haliburton, Canada
Current Conditions -  °F | °C
As of 5:00 PM on Tuesday 21 Oct 2014 (Local Time) from CYQA Reporting Station
Overcast Overcast  
Wind Chill: 36°   Ceiling: 1400
Heat Index: 41°   Visibility: 9mi
Dew Point: 39°   Wind: 7mph
Humidity: 93%   Direction: 20°NNE
Pressure: 30.07"   Gusts: 18mph
Location:  45.05°N, 78.51°W
Report Text: CYQA 212100Z AUTO 02006G16KT 330V060 9SM OVC014 05/04 A3007 RMK SLP191
Loading
Personal Weather Stations






























Interactive Weather Map
Tropical Storm Tracking
New forecast layout! Learn more

10-Day Weather Forecast

Advertisements
Track Severe Weather on mobile